sensor_id;sensor_type;location;lat;lon;timestamp;P1;durP1;ratioP1;P2;durP2;ratioP2
12867;SDS011;33517;49.866;8.320;2023-04-15T00:01:52;0.43;;;0.43;;
12867;SDS011;33517;49.866;8.320;2023-04-15T00:04:44;0.30;;;0.30;;
12867;SDS011;33517;49.866;8.320;2023-04-15T00:07:36;0.52;;;0.52;;
12867;SDS011;33517;49.866;8.320;2023-04-15T00:10:28;0.63;;;0.63;;
12867;SDS011;33517;49.866;8.320;2023-04-15T00:13:20;0.50;;;0.50;;
12867;SDS011;33517;49.866;8.320;2023-04-15T00:16:11;0.40;;;0.40;;
12867;SDS011;33517;49.866;8.320;2023-04-15T00:19:05;0.38;;;0.38;;
12867;SDS011;33517;49.866;8.320;2023-04-15T00:21:56;0.50;;;0.50;;
12867;SDS011;33517;49.866;8.320;2023-04-15T00:24:48;0.55;;;0.55;;
12867;SDS011;33517;49.866;8.320;2023-04-15T00:27:40;0.95;;;0.95;;
12867;SDS011;33517;49.866;8.320;2023-04-15T00:30:32;0.90;;;0.68;;
12867;SDS011;33517;49.866;8.320;2023-04-15T00:33:24;0.80;;;0.80;;
12867;SDS011;33517;49.866;8.320;2023-04-15T00:36:17;0.30;;;0.30;;
12867;SDS011;33517;49.866;8.320;2023-04-15T00:39:09;2.38;;;1.13;;
12867;SDS011;33517;49.866;8.320;2023-04-15T00:42:01;0.52;;;0.52;;
12867;SDS011;33517;49.866;8.320;2023-04-15T00:44:54;1.20;;;0.95;;
12867;SDS011;33517;49.866;8.320;2023-04-15T00:47:46;0.63;;;0.63;;
12867;SDS011;33517;49.866;8.320;2023-04-15T00:50:38;0.32;;;0.32;;
12867;SDS011;33517;49.866;8.320;2023-04-15T00:53:31;1.25;;;0.75;;
12867;SDS011;33517;49.866;8.320;2023-04-15T00:56:23;0.30;;;0.30;;
12867;SDS011;33517;49.866;8.320;2023-04-15T00:59:16;0.30;;;0.30;;
12867;SDS011;33517;49.866;8.320;2023-04-15T01:02:08;0.43;;;0.43;;
12867;SDS011;33517;49.866;8.320;2023-04-15T01:05:01;1.55;;;0.75;;
12867;SDS011;33517;49.866;8.320;2023-04-15T01:07:53;0.57;;;0.57;;
12867;SDS011;33517;49.866;8.320;2023-04-15T01:10:47;0.20;;;0.20;;
12867;SDS011;33517;49.866;8.320;2023-04-15T01:13:39;0.45;;;0.45;;
12867;SDS011;33517;49.866;8.320;2023-04-15T01:16:31;0.50;;;0.50;;
12867;SDS011;33517;49.866;8.320;2023-04-15T01:19:22;0.70;;;0.70;;
12867;SDS011;33517;49.866;8.320;2023-04-15T01:22:15;0.35;;;0.35;;
12867;SDS011;33517;49.866;8.320;2023-04-15T01:25:08;0.68;;;0.68;;
12867;SDS011;33517;49.866;8.320;2023-04-15T01:28:03;0.50;;;0.50;;
12867;SDS011;33517;49.866;8.320;2023-04-15T01:31:08;0.60;;;0.60;;
12867;SDS011;33517;49.866;8.320;2023-04-15T01:34:01;3.03;;;0.90;;
12867;SDS011;33517;49.866;8.320;2023-04-15T01:36:53;0.93;;;0.65;;
12867;SDS011;33517;49.866;8.320;2023-04-15T01:39:45;1.13;;;1.02;;
12867;SDS011;33517;49.866;8.320;2023-04-15T01:42:37;0.30;;;0.30;;
12867;SDS011;33517;49.866;8.320;2023-04-15T01:45:30;0.30;;;0.30;;
12867;SDS011;33517;49.866;8.320;2023-04-15T01:48:22;0.50;;;0.50;;
12867;SDS011;33517;49.866;8.320;2023-04-15T01:51:14;0.55;;;0.55;;
12867;SDS011;33517;49.866;8.320;2023-04-15T01:54:06;0.55;;;0.55;;
12867;SDS011;33517;49.866;8.320;2023-04-15T01:56:57;0.20;;;0.20;;
12867;SDS011;33517;49.866;8.320;2023-04-15T01:59:49;0.80;;;0.80;;
12867;SDS011;33517;49.866;8.320;2023-04-15T02:02:42;1.48;;;1.02;;
12867;SDS011;33517;49.866;8.320;2023-04-15T02:05:34;0.50;;;0.50;;
12867;SDS011;33517;49.866;8.320;2023-04-15T02:08:26;2.10;;;0.52;;
12867;SDS011;33517;49.866;8.320;2023-04-15T02:11:18;0.30;;;0.30;;
12867;SDS011;33517;49.866;8.320;2023-04-15T02:14:10;0.45;;;0.45;;
12867;SDS011;33517;49.866;8.320;2023-04-15T02:17:02;0.20;;;0.20;;
12867;SDS011;33517;49.866;8.320;2023-04-15T02:19:59;0.47;;;0.47;;
12867;SDS011;33517;49.866;8.320;2023-04-15T02:22:50;0.60;;;0.60;;
12867;SDS011;33517;49.866;8.320;2023-04-15T02:25:42;0.63;;;0.63;;
12867;SDS011;33517;49.866;8.320;2023-04-15T02:28:35;0.25;;;0.25;;
12867;SDS011;33517;49.866;8.320;2023-04-15T02:31:27;4.57;;;1.30;;
12867;SDS011;33517;49.866;8.320;2023-04-15T02:34:19;0.40;;;0.40;;
12867;SDS011;33517;49.866;8.320;2023-04-15T02:37:12;0.88;;;0.88;;
12867;SDS011;33517;49.866;8.320;2023-04-15T02:40:06;0.68;;;0.68;;
12867;SDS011;33517;49.866;8.320;2023-04-15T02:42:58;1.75;;;1.25;;
12867;SDS011;33517;49.866;8.320;2023-04-15T02:45:50;2.80;;;1.88;;
12867;SDS011;33517;49.866;8.320;2023-04-15T02:48:42;1.63;;;1.52;;
12867;SDS011;33517;49.866;8.320;2023-04-15T02:51:34;1.55;;;1.45;;
12867;SDS011;33517;49.866;8.320;2023-04-15T02:54:27;1.60;;;1.38;;
12867;SDS011;33517;49.866;8.320;2023-04-15T02:57:20;3.15;;;2.85;;
12867;SDS011;33517;49.866;8.320;2023-04-15T03:00:12;1.83;;;1.73;;
12867;SDS011;33517;49.866;8.320;2023-04-15T03:03:04;1.65;;;1.27;;
12867;SDS011;33517;49.866;8.320;2023-04-15T03:05:58;2.33;;;1.75;;
12867;SDS011;33517;49.866;8.320;2023-04-15T03:08:50;4.13;;;2.05;;
12867;SDS011;33517;49.866;8.320;2023-04-15T03:11:43;1.00;;;1.00;;
12867;SDS011;33517;49.866;8.320;2023-04-15T03:14:35;5.28;;;2.25;;
12867;SDS011;33517;49.866;8.320;2023-04-15T03:17:26;3.88;;;3.47;;
12867;SDS011;33517;49.866;8.320;2023-04-15T03:20:18;0.88;;;0.88;;
12867;SDS011;33517;49.866;8.320;2023-04-15T03:23:10;1.23;;;1.13;;
12867;SDS011;33517;49.866;8.320;2023-04-15T03:26:02;3.35;;;3.05;;
12867;SDS011;33517;49.866;8.320;2023-04-15T03:28:56;6.38;;;3.58;;
12867;SDS011;33517;49.866;8.320;2023-04-15T03:31:48;3.95;;;2.83;;
12867;SDS011;33517;49.866;8.320;2023-04-15T03:34:41;0.65;;;0.65;;
12867;SDS011;33517;49.866;8.320;2023-04-15T03:37:33;2.75;;;2.03;;
12867;SDS011;33517;49.866;8.320;2023-04-15T03:40:25;2.00;;;1.83;;
12867;SDS011;33517;49.866;8.320;2023-04-15T03:43:16;2.33;;;2.00;;
12867;SDS011;33517;49.866;8.320;2023-04-15T03:46:10;4.07;;;2.70;;
12867;SDS011;33517;49.866;8.320;2023-04-15T03:49:01;3.10;;;2.88;;
12867;SDS011;33517;49.866;8.320;2023-04-15T03:51:53;2.65;;;1.50;;
12867;SDS011;33517;49.866;8.320;2023-04-15T03:54:45;2.80;;;2.22;;
12867;SDS011;33517;49.866;8.320;2023-04-15T03:57:37;3.22;;;2.85;;
12867;SDS011;33517;49.866;8.320;2023-04-15T04:00:29;2.50;;;1.45;;
12867;SDS011;33517;49.866;8.320;2023-04-15T04:03:23;3.72;;;1.70;;
12867;SDS011;33517;49.866;8.320;2023-04-15T04:06:14;6.03;;;3.03;;
12867;SDS011;33517;49.866;8.320;2023-04-15T04:09:06;3.08;;;2.80;;
12867;SDS011;33517;49.866;8.320;2023-04-15T04:11:58;4.63;;;1.55;;
12867;SDS011;33517;49.866;8.320;2023-04-15T04:14:50;1.30;;;1.30;;
12867;SDS011;33517;49.866;8.320;2023-04-15T04:17:42;3.58;;;3.17;;
12867;SDS011;33517;49.866;8.320;2023-04-15T04:20:35;4.40;;;2.08;;
12867;SDS011;33517;49.866;8.320;2023-04-15T04:23:27;3.03;;;2.50;;
12867;SDS011;33517;49.866;8.320;2023-04-15T04:26:19;3.70;;;3.15;;
12867;SDS011;33517;49.866;8.320;2023-04-15T04:29:11;2.70;;;2.50;;
12867;SDS011;33517;49.866;8.320;2023-04-15T04:32:03;6.18;;;2.40;;
12867;SDS011;33517;49.866;8.320;2023-04-15T04:34:55;7.22;;;2.13;;
12867;SDS011;33517;49.866;8.320;2023-04-15T04:37:48;3.03;;;1.90;;
12867;SDS011;33517;49.866;8.320;2023-04-15T04:40:41;2.83;;;1.40;;
12867;SDS011;33517;49.866;8.320;2023-04-15T04:43:33;2.83;;;0.95;;
12867;SDS011;33517;49.866;8.320;2023-04-15T04:46:25;0.20;;;0.20;;
12867;SDS011;33517;49.866;8.320;2023-04-15T04:49:17;0.73;;;0.63;;
12867;SDS011;33517;49.866;8.320;2023-04-15T04:52:09;0.52;;;0.52;;
12867;SDS011;33517;49.866;8.320;2023-04-15T04:55:02;0.55;;;0.55;;
12867;SDS011;33517;49.866;8.320;2023-04-15T04:57:54;0.40;;;0.40;;
12867;SDS011;33517;49.866;8.320;2023-04-15T05:00:46;0.95;;;0.95;;
12867;SDS011;33517;49.866;8.320;2023-04-15T05:03:38;2.42;;;1.92;;
12867;SDS011;33517;49.866;8.320;2023-04-15T05:06:30;0.60;;;0.57;;
12867;SDS011;33517;49.866;8.320;2023-04-15T05:09:22;4.40;;;0.80;;
12867;SDS011;33517;49.866;8.320;2023-04-15T05:12:15;3.42;;;1.85;;
12867;SDS011;33517;49.866;8.320;2023-04-15T05:15:08;2.20;;;1.40;;
12867;SDS011;33517;49.866;8.320;2023-04-15T05:18:00;0.40;;;0.40;;
12867;SDS011;33517;49.866;8.320;2023-04-15T05:20:52;0.40;;;0.40;;
12867;SDS011;33517;49.866;8.320;2023-04-15T05:23:43;0.28;;;0.28;;
12867;SDS011;33517;49.866;8.320;2023-04-15T05:26:35;0.60;;;0.60;;
12867;SDS011;33517;49.866;8.320;2023-04-15T05:29:28;3.60;;;1.95;;
12867;SDS011;33517;49.866;8.320;2023-04-15T05:32:20;2.40;;;1.42;;
12867;SDS011;33517;49.866;8.320;2023-04-15T05:35:12;0.60;;;0.60;;
12867;SDS011;33517;49.866;8.320;2023-04-15T05:38:04;0.40;;;0.40;;
12867;SDS011;33517;49.866;8.320;2023-04-15T05:40:56;0.70;;;0.57;;
12867;SDS011;33517;49.866;8.320;2023-04-15T05:43:48;0.47;;;0.47;;
12867;SDS011;33517;49.866;8.320;2023-04-15T05:46:41;0.57;;;0.57;;
12867;SDS011;33517;49.866;8.320;2023-04-15T05:49:33;1.25;;;0.82;;
12867;SDS011;33517;49.866;8.320;2023-04-15T05:52:25;0.55;;;0.55;;
12867;SDS011;33517;49.866;8.320;2023-04-15T05:55:17;0.50;;;0.50;;
12867;SDS011;33517;49.866;8.320;2023-04-15T05:58:08;2.40;;;0.77;;
12867;SDS011;33517;49.866;8.320;2023-04-15T06:01:01;0.90;;;0.90;;
12867;SDS011;33517;49.866;8.320;2023-04-15T06:03:54;2.92;;;1.63;;
12867;SDS011;33517;49.866;8.320;2023-04-15T06:06:46;0.40;;;0.40;;
12867;SDS011;33517;49.866;8.320;2023-04-15T06:09:38;0.75;;;0.75;;
12867;SDS011;33517;49.866;8.320;2023-04-15T06:12:30;3.38;;;1.00;;
12867;SDS011;33517;49.866;8.320;2023-04-15T06:15:22;0.30;;;0.30;;
12867;SDS011;33517;49.866;8.320;2023-04-15T06:18:14;4.55;;;2.60;;
12867;SDS011;33517;49.866;8.320;2023-04-15T06:21:07;1.23;;;0.93;;
12867;SDS011;33517;49.866;8.320;2023-04-15T06:23:59;1.63;;;1.13;;
12867;SDS011;33517;49.866;8.320;2023-04-15T06:26:52;0.68;;;0.65;;
12867;SDS011;33517;49.866;8.320;2023-04-15T06:29:43;4.13;;;2.92;;
12867;SDS011;33517;49.866;8.320;2023-04-15T06:32:35;0.70;;;0.70;;
12867;SDS011;33517;49.866;8.320;2023-04-15T06:35:27;1.60;;;0.90;;
12867;SDS011;33517;49.866;8.320;2023-04-15T06:38:20;1.48;;;1.08;;
12867;SDS011;33517;49.866;8.320;2023-04-15T06:41:12;0.85;;;0.85;;
12867;SDS011;33517;49.866;8.320;2023-04-15T06:44:04;0.80;;;0.80;;
12867;SDS011;33517;49.866;8.320;2023-04-15T06:46:56;0.70;;;0.70;;
12867;SDS011;33517;49.866;8.320;2023-04-15T06:49:48;1.45;;;1.35;;
12867;SDS011;33517;49.866;8.320;2023-04-15T06:52:41;0.85;;;0.85;;
12867;SDS011;33517;49.866;8.320;2023-04-15T06:55:34;0.45;;;0.45;;
12867;SDS011;33517;49.866;8.320;2023-04-15T06:58:26;1.00;;;0.90;;
12867;SDS011;33517;49.866;8.320;2023-04-15T07:01:17;1.52;;;1.42;;
12867;SDS011;33517;49.866;8.320;2023-04-15T07:04:10;0.93;;;0.93;;
12867;SDS011;33517;49.866;8.320;2023-04-15T07:07:02;1.00;;;0.98;;
12867;SDS011;33517;49.866;8.320;2023-04-15T07:09:55;1.40;;;1.13;;
12867;SDS011;33517;49.866;8.320;2023-04-15T07:12:48;1.23;;;1.13;;
12867;SDS011;33517;49.866;8.320;2023-04-15T07:15:40;0.90;;;0.90;;
12867;SDS011;33517;49.866;8.320;2023-04-15T07:18:32;1.60;;;0.73;;
12867;SDS011;33517;49.866;8.320;2023-04-15T07:21:24;1.60;;;0.98;;
12867;SDS011;33517;49.866;8.320;2023-04-15T07:24:17;1.70;;;0.85;;
12867;SDS011;33517;49.866;8.320;2023-04-15T07:27:10;1.25;;;1.00;;
12867;SDS011;33517;49.866;8.320;2023-04-15T07:30:03;1.55;;;1.45;;
12867;SDS011;33517;49.866;8.320;2023-04-15T07:32:56;1.65;;;1.10;;
12867;SDS011;33517;49.866;8.320;2023-04-15T07:35:49;1.30;;;1.20;;
12867;SDS011;33517;49.866;8.320;2023-04-15T07:38:40;1.90;;;1.73;;
12867;SDS011;33517;49.866;8.320;2023-04-15T07:41:32;2.10;;;1.67;;
12867;SDS011;33517;49.866;8.320;2023-04-15T07:44:24;8.75;;;1.75;;
12867;SDS011;33517;49.866;8.320;2023-04-15T07:47:18;1.98;;;1.52;;
12867;SDS011;33517;49.866;8.320;2023-04-15T07:50:10;2.88;;;1.80;;
12867;SDS011;33517;49.866;8.320;2023-04-15T07:53:02;12.27;;;2.00;;
12867;SDS011;33517;49.866;8.320;2023-04-15T07:55:55;1.92;;;1.58;;
12867;SDS011;33517;49.866;8.320;2023-04-15T07:58:46;6.25;;;1.33;;
12867;SDS011;33517;49.866;8.320;2023-04-15T08:01:38;1.88;;;1.48;;
12867;SDS011;33517;49.866;8.320;2023-04-15T08:04:31;2.72;;;1.77;;
12867;SDS011;33517;49.866;8.320;2023-04-15T08:07:23;2.08;;;1.25;;
12867;SDS011;33517;49.866;8.320;2023-04-15T08:10:15;1.25;;;1.15;;
12867;SDS011;33517;49.866;8.320;2023-04-15T08:13:07;1.55;;;1.40;;
12867;SDS011;33517;49.866;8.320;2023-04-15T08:16:13;1.25;;;1.17;;
12867;SDS011;33517;49.866;8.320;2023-04-15T08:19:08;2.28;;;1.23;;
12867;SDS011;33517;49.866;8.320;2023-04-15T08:22:01;3.70;;;1.52;;
12867;SDS011;33517;49.866;8.320;2023-04-15T08:24:53;2.35;;;1.58;;
12867;SDS011;33517;49.866;8.320;2023-04-15T08:27:44;1.20;;;1.10;;
12867;SDS011;33517;49.866;8.320;2023-04-15T08:30:36;2.47;;;1.48;;
12867;SDS011;33517;49.866;8.320;2023-04-15T08:33:28;1.73;;;1.13;;
12867;SDS011;33517;49.866;8.320;2023-04-15T08:36:20;1.20;;;1.10;;
12867;SDS011;33517;49.866;8.320;2023-04-15T08:39:13;1.63;;;1.17;;
12867;SDS011;33517;49.866;8.320;2023-04-15T08:42:06;4.47;;;1.35;;
12867;SDS011;33517;49.866;8.320;2023-04-15T08:45:03;1.35;;;1.13;;
12867;SDS011;33517;49.866;8.320;2023-04-15T08:47:55;1.13;;;1.13;;
12867;SDS011;33517;49.866;8.320;2023-04-15T08:50:48;3.67;;;1.52;;
12867;SDS011;33517;49.866;8.320;2023-04-15T08:53:41;5.18;;;1.20;;
12867;SDS011;33517;49.866;8.320;2023-04-15T08:56:36;0.80;;;0.80;;
12867;SDS011;33517;49.866;8.320;2023-04-15T08:59:29;1.00;;;0.90;;
12867;SDS011;33517;49.866;8.320;2023-04-15T09:02:21;1.38;;;1.27;;
12867;SDS011;33517;49.866;8.320;2023-04-15T09:05:14;2.90;;;1.40;;
12867;SDS011;33517;49.866;8.320;2023-04-15T09:08:06;1.40;;;1.15;;
12867;SDS011;33517;49.866;8.320;2023-04-15T09:10:58;3.42;;;1.38;;
12867;SDS011;33517;49.866;8.320;2023-04-15T09:13:52;1.98;;;1.00;;
12867;SDS011;33517;49.866;8.320;2023-04-15T09:16:56;1.13;;;1.13;;
12867;SDS011;33517;49.866;8.320;2023-04-15T09:19:48;1.17;;;1.10;;
12867;SDS011;33517;49.866;8.320;2023-04-15T09:22:57;1.90;;;1.27;;
12867;SDS011;33517;49.866;8.320;2023-04-15T09:25:50;1.73;;;1.38;;
12867;SDS011;33517;49.866;8.320;2023-04-15T09:28:41;1.98;;;1.42;;
12867;SDS011;33517;49.866;8.320;2023-04-15T09:31:35;1.30;;;1.10;;
12867;SDS011;33517;49.866;8.320;2023-04-15T09:34:33;3.45;;;1.23;;
12867;SDS011;33517;49.866;8.320;2023-04-15T09:37:33;2.60;;;1.70;;
12867;SDS011;33517;49.866;8.320;2023-04-15T09:40:35;2.92;;;1.38;;
12867;SDS011;33517;49.866;8.320;2023-04-15T09:43:36;3.33;;;1.83;;
12867;SDS011;33517;49.866;8.320;2023-04-15T09:46:42;1.48;;;1.38;;
12867;SDS011;33517;49.866;8.320;2023-04-15T09:49:35;1.45;;;1.13;;
12867;SDS011;33517;49.866;8.320;2023-04-15T09:52:27;1.95;;;1.50;;
12867;SDS011;33517;49.866;8.320;2023-04-15T09:55:20;2.67;;;1.17;;
12867;SDS011;33517;49.866;8.320;2023-04-15T09:58:16;1.15;;;1.05;;
12867;SDS011;33517;49.866;8.320;2023-04-15T10:01:09;1.52;;;1.20;;
12867;SDS011;33517;49.866;8.320;2023-04-15T10:04:03;1.67;;;1.15;;
12867;SDS011;33517;49.866;8.320;2023-04-15T10:06:55;2.60;;;1.15;;
12867;SDS011;33517;49.866;8.320;2023-04-15T10:09:48;2.08;;;1.00;;
12867;SDS011;33517;49.866;8.320;2023-04-15T10:12:40;1.05;;;1.02;;
12867;SDS011;33517;49.866;8.320;2023-04-15T10:15:33;1.80;;;1.27;;
12867;SDS011;33517;49.866;8.320;2023-04-15T10:18:26;1.45;;;1.10;;
12867;SDS011;33517;49.866;8.320;2023-04-15T10:21:20;1.10;;;1.00;;
12867;SDS011;33517;49.866;8.320;2023-04-15T10:24:13;1.52;;;0.90;;
12867;SDS011;33517;49.866;8.320;2023-04-15T10:27:06;7.05;;;1.35;;
12867;SDS011;33517;49.866;8.320;2023-04-15T10:29:59;1.23;;;1.10;;
12867;SDS011;33517;49.866;8.320;2023-04-15T10:32:52;5.80;;;1.70;;
12867;SDS011;33517;49.866;8.320;2023-04-15T10:35:45;0.93;;;0.80;;
12867;SDS011;33517;49.866;8.320;2023-04-15T10:38:41;0.47;;;0.47;;
12867;SDS011;33517;49.866;8.320;2023-04-15T10:41:34;0.60;;;0.60;;
12867;SDS011;33517;49.866;8.320;2023-04-15T10:44:27;2.05;;;0.70;;
12867;SDS011;33517;49.866;8.320;2023-04-15T10:47:20;0.55;;;0.55;;
12867;SDS011;33517;49.866;8.320;2023-04-15T10:50:12;0.50;;;0.50;;
12867;SDS011;33517;49.866;8.320;2023-04-15T10:53:04;0.60;;;0.60;;
12867;SDS011;33517;49.866;8.320;2023-04-15T10:55:57;0.60;;;0.60;;
12867;SDS011;33517;49.866;8.320;2023-04-15T10:58:49;0.93;;;0.88;;
12867;SDS011;33517;49.866;8.320;2023-04-15T11:01:50;0.50;;;0.50;;
12867;SDS011;33517;49.866;8.320;2023-04-15T11:04:50;0.40;;;0.40;;
12867;SDS011;33517;49.866;8.320;2023-04-15T11:07:47;7.75;;;1.05;;
12867;SDS011;33517;49.866;8.320;2023-04-15T11:10:50;0.50;;;0.50;;
12867;SDS011;33517;49.866;8.320;2023-04-15T11:13:47;0.40;;;0.28;;
12867;SDS011;33517;49.866;8.320;2023-04-15T11:16:41;1.17;;;1.05;;
12867;SDS011;33517;49.866;8.320;2023-04-15T11:19:34;1.65;;;0.40;;
12867;SDS011;33517;49.866;8.320;2023-04-15T11:22:28;4.00;;;0.43;;
12867;SDS011;33517;49.866;8.320;2023-04-15T11:25:23;0.40;;;0.40;;
12867;SDS011;33517;49.866;8.320;2023-04-15T11:28:15;9.02;;;0.60;;
12867;SDS011;33517;49.866;8.320;2023-04-15T11:31:09;0.43;;;0.43;;
12867;SDS011;33517;49.866;8.320;2023-04-15T11:34:02;0.32;;;0.30;;
12867;SDS011;33517;49.866;8.320;2023-04-15T11:36:55;0.82;;;0.82;;
12867;SDS011;33517;49.866;8.320;2023-04-15T11:39:49;0.85;;;0.65;;
12867;SDS011;33517;49.866;8.320;2023-04-15T11:42:40;0.45;;;0.45;;
12867;SDS011;33517;49.866;8.320;2023-04-15T11:45:32;0.40;;;0.30;;
12867;SDS011;33517;49.866;8.320;2023-04-15T11:48:27;0.73;;;0.40;;
12867;SDS011;33517;49.866;8.320;2023-04-15T11:51:20;0.90;;;0.73;;
12867;SDS011;33517;49.866;8.320;2023-04-15T11:54:17;0.50;;;0.50;;
12867;SDS011;33517;49.866;8.320;2023-04-15T11:57:09;1.27;;;0.60;;
12867;SDS011;33517;49.866;8.320;2023-04-15T12:00:01;0.32;;;0.30;;
12867;SDS011;33517;49.866;8.320;2023-04-15T12:06:07;0.30;;;0.30;;
12867;SDS011;33517;49.866;8.320;2023-04-15T12:09:08;0.15;;;0.15;;
12867;SDS011;33517;49.866;8.320;2023-04-15T12:12:01;0.55;;;0.55;;
12867;SDS011;33517;49.866;8.320;2023-04-15T12:14:55;0.35;;;0.35;;
12867;SDS011;33517;49.866;8.320;2023-04-15T12:17:47;0.10;;;0.10;;
12867;SDS011;33517;49.866;8.320;2023-04-15T12:20:42;0.20;;;0.20;;
12867;SDS011;33517;49.866;8.320;2023-04-15T12:23:37;0.30;;;0.30;;
12867;SDS011;33517;49.866;8.320;2023-04-15T12:26:30;0.40;;;0.38;;
12867;SDS011;33517;49.866;8.320;2023-04-15T12:29:27;0.30;;;0.28;;
12867;SDS011;33517;49.866;8.320;2023-04-15T12:32:20;1.08;;;0.52;;
12867;SDS011;33517;49.866;8.320;2023-04-15T12:35:12;0.20;;;0.20;;
12867;SDS011;33517;49.866;8.320;2023-04-15T12:38:03;0.17;;;0.17;;
12867;SDS011;33517;49.866;8.320;2023-04-15T12:40:57;0.20;;;0.20;;
12867;SDS011;33517;49.866;8.320;2023-04-15T12:43:49;0.47;;;0.47;;
12867;SDS011;33517;49.866;8.320;2023-04-15T12:46:41;0.30;;;0.30;;
12867;SDS011;33517;49.866;8.320;2023-04-15T12:49:33;0.25;;;0.25;;
12867;SDS011;33517;49.866;8.320;2023-04-15T12:52:25;0.30;;;0.30;;
12867;SDS011;33517;49.866;8.320;2023-04-15T12:55:17;1.17;;;0.60;;
12867;SDS011;33517;49.866;8.320;2023-04-15T12:58:10;0.38;;;0.38;;
12867;SDS011;33517;49.866;8.320;2023-04-15T13:01:02;0.30;;;0.30;;
12867;SDS011;33517;49.866;8.320;2023-04-15T13:03:55;0.20;;;0.20;;
12867;SDS011;33517;49.866;8.320;2023-04-15T13:06:47;0.47;;;0.47;;
12867;SDS011;33517;49.866;8.320;2023-04-15T13:09:39;0.20;;;0.20;;
12867;SDS011;33517;49.866;8.320;2023-04-15T13:12:31;0.30;;;0.25;;
12867;SDS011;33517;49.866;8.320;2023-04-15T13:15:27;0.50;;;0.40;;
12867;SDS011;33517;49.866;8.320;2023-04-15T13:18:19;0.82;;;0.30;;
12867;SDS011;33517;49.866;8.320;2023-04-15T13:21:11;0.28;;;0.28;;
12867;SDS011;33517;49.866;8.320;2023-04-15T13:24:03;0.30;;;0.30;;
12867;SDS011;33517;49.866;8.320;2023-04-15T13:26:56;0.45;;;0.45;;
12867;SDS011;33517;49.866;8.320;2023-04-15T13:29:48;0.40;;;0.40;;
12867;SDS011;33517;49.866;8.320;2023-04-15T13:32:41;0.30;;;0.30;;
12867;SDS011;33517;49.866;8.320;2023-04-15T13:35:33;0.30;;;0.30;;
12867;SDS011;33517;49.866;8.320;2023-04-15T13:38:25;0.68;;;0.63;;
12867;SDS011;33517;49.866;8.320;2023-04-15T13:41:17;0.65;;;0.47;;
12867;SDS011;33517;49.866;8.320;2023-04-15T13:44:10;0.35;;;0.35;;
12867;SDS011;33517;49.866;8.320;2023-04-15T13:47:02;0.30;;;0.30;;
12867;SDS011;33517;49.866;8.320;2023-04-15T13:49:56;0.30;;;0.30;;
12867;SDS011;33517;49.866;8.320;2023-04-15T13:52:48;0.30;;;0.30;;
12867;SDS011;33517;49.866;8.320;2023-04-15T13:55:40;0.98;;;0.85;;
12867;SDS011;33517;49.866;8.320;2023-04-15T13:58:32;0.52;;;0.30;;
12867;SDS011;33517;49.866;8.320;2023-04-15T14:01:23;0.55;;;0.32;;
12867;SDS011;33517;49.866;8.320;2023-04-15T14:04:15;0.40;;;0.40;;
12867;SDS011;33517;49.866;8.320;2023-04-15T14:07:08;21.25;;;0.55;;
12867;SDS011;33517;49.866;8.320;2023-04-15T14:10:00;0.22;;;0.22;;
12867;SDS011;33517;49.866;8.320;2023-04-15T14:12:52;0.43;;;0.43;;
12867;SDS011;33517;49.866;8.320;2023-04-15T14:15:44;0.57;;;0.45;;
12867;SDS011;33517;49.866;8.320;2023-04-15T14:18:36;0.40;;;0.40;;
12867;SDS011;33517;49.866;8.320;2023-04-15T14:21:28;0.38;;;0.38;;
12867;SDS011;33517;49.866;8.320;2023-04-15T14:24:23;0.22;;;0.22;;
12867;SDS011;33517;49.866;8.320;2023-04-15T14:27:15;0.52;;;0.45;;
12867;SDS011;33517;49.866;8.320;2023-04-15T14:30:07;0.32;;;0.32;;
12867;SDS011;33517;49.866;8.320;2023-04-15T14:33:00;0.30;;;0.30;;
12867;SDS011;33517;49.866;8.320;2023-04-15T14:35:52;0.93;;;0.60;;
12867;SDS011;33517;49.866;8.320;2023-04-15T14:38:43;0.28;;;0.28;;
12867;SDS011;33517;49.866;8.320;2023-04-15T14:41:37;0.30;;;0.30;;
12867;SDS011;33517;49.866;8.320;2023-04-15T14:44:29;0.38;;;0.38;;
12867;SDS011;33517;49.866;8.320;2023-04-15T14:47:20;0.40;;;0.40;;
12867;SDS011;33517;49.866;8.320;2023-04-15T14:50:13;0.20;;;0.20;;
12867;SDS011;33517;49.866;8.320;2023-04-15T14:53:04;0.20;;;0.20;;
12867;SDS011;33517;49.866;8.320;2023-04-15T14:55:56;0.80;;;0.63;;
12867;SDS011;33517;49.866;8.320;2023-04-15T14:58:49;0.50;;;0.50;;
12867;SDS011;33517;49.866;8.320;2023-04-15T15:01:42;0.40;;;0.40;;
12867;SDS011;33517;49.866;8.320;2023-04-15T15:04:34;0.40;;;0.40;;
12867;SDS011;33517;49.866;8.320;2023-04-15T15:07:26;0.20;;;0.20;;
12867;SDS011;33517;49.866;8.320;2023-04-15T15:10:19;0.47;;;0.47;;
12867;SDS011;33517;49.866;8.320;2023-04-15T15:13:12;0.50;;;0.50;;
12867;SDS011;33517;49.866;8.320;2023-04-15T15:16:05;0.22;;;0.22;;
12867;SDS011;33517;49.866;8.320;2023-04-15T15:18:58;0.20;;;0.20;;
12867;SDS011;33517;49.866;8.320;2023-04-15T15:21:50;0.15;;;0.15;;
12867;SDS011;33517;49.866;8.320;2023-04-15T15:24:42;0.70;;;0.70;;
12867;SDS011;33517;49.866;8.320;2023-04-15T15:27:34;0.50;;;0.50;;
12867;SDS011;33517;49.866;8.320;2023-04-15T15:30:26;1.17;;;0.70;;
12867;SDS011;33517;49.866;8.320;2023-04-15T15:33:20;0.73;;;0.70;;
12867;SDS011;33517;49.866;8.320;2023-04-15T15:36:12;0.40;;;0.40;;
12867;SDS011;33517;49.866;8.320;2023-04-15T15:39:03;0.40;;;0.30;;
12867;SDS011;33517;49.866;8.320;2023-04-15T15:41:55;0.50;;;0.45;;
12867;SDS011;33517;49.866;8.320;2023-04-15T15:44:48;0.50;;;0.50;;
12867;SDS011;33517;49.866;8.320;2023-04-15T15:47:42;0.68;;;0.68;;
12867;SDS011;33517;49.866;8.320;2023-04-15T15:50:35;0.55;;;0.55;;
12867;SDS011;33517;49.866;8.320;2023-04-15T15:53:27;0.47;;;0.47;;
12867;SDS011;33517;49.866;8.320;2023-04-15T15:56:19;0.43;;;0.35;;
12867;SDS011;33517;49.866;8.320;2023-04-15T15:59:11;0.60;;;0.60;;
12867;SDS011;33517;49.866;8.320;2023-04-15T16:02:03;0.50;;;0.50;;
12867;SDS011;33517;49.866;8.320;2023-04-15T16:04:55;0.50;;;0.50;;
12867;SDS011;33517;49.866;8.320;2023-04-15T16:07:48;0.32;;;0.32;;
12867;SDS011;33517;49.866;8.320;2023-04-15T16:10:40;0.30;;;0.30;;
12867;SDS011;33517;49.866;8.320;2023-04-15T16:13:32;0.45;;;0.45;;
12867;SDS011;33517;49.866;8.320;2023-04-15T16:16:24;0.60;;;0.60;;
12867;SDS011;33517;49.866;8.320;2023-04-15T16:19:15;0.20;;;0.20;;
12867;SDS011;33517;49.866;8.320;2023-04-15T16:22:07;0.52;;;0.52;;
12867;SDS011;33517;49.866;8.320;2023-04-15T16:25:01;0.52;;;0.32;;
12867;SDS011;33517;49.866;8.320;2023-04-15T16:27:53;3.33;;;0.60;;
12867;SDS011;33517;49.866;8.320;2023-04-15T16:30:45;0.30;;;0.30;;
12867;SDS011;33517;49.866;8.320;2023-04-15T16:33:37;0.60;;;0.60;;
12867;SDS011;33517;49.866;8.320;2023-04-15T16:36:29;0.85;;;0.30;;
12867;SDS011;33517;49.866;8.320;2023-04-15T16:39:21;1.73;;;1.63;;
12867;SDS011;33517;49.866;8.320;2023-04-15T16:42:15;0.40;;;0.40;;
12867;SDS011;33517;49.866;8.320;2023-04-15T16:45:07;0.95;;;0.95;;
12867;SDS011;33517;49.866;8.320;2023-04-15T16:47:59;0.82;;;0.60;;
12867;SDS011;33517;49.866;8.320;2023-04-15T16:50:51;0.38;;;0.38;;
12867;SDS011;33517;49.866;8.320;2023-04-15T16:53:43;0.40;;;0.40;;
12867;SDS011;33517;49.866;8.320;2023-04-15T16:56:35;0.40;;;0.40;;
12867;SDS011;33517;49.866;8.320;2023-04-15T16:59:28;0.90;;;0.30;;
12867;SDS011;33517;49.866;8.320;2023-04-15T17:02:20;2.13;;;0.70;;
12867;SDS011;33517;49.866;8.320;2023-04-15T17:05:12;3.00;;;1.05;;
12867;SDS011;33517;49.866;8.320;2023-04-15T17:08:04;1.27;;;0.70;;
12867;SDS011;33517;49.866;8.320;2023-04-15T17:10:56;1.08;;;0.82;;
12867;SDS011;33517;49.866;8.320;2023-04-15T17:13:48;1.45;;;0.88;;
12867;SDS011;33517;49.866;8.320;2023-04-15T17:16:42;0.60;;;0.60;;
12867;SDS011;33517;49.866;8.320;2023-04-15T17:19:35;1.17;;;1.02;;
12867;SDS011;33517;49.866;8.320;2023-04-15T17:22:27;0.20;;;0.20;;
12867;SDS011;33517;49.866;8.320;2023-04-15T17:25:19;0.28;;;0.28;;